Time;durP1;ratioP1;P1;durP2;ratioP2;P2;SDS_P1;SDS_P2;PMS_P1;PMS_P2;Temp;Humidity;BMP_temperature;BMP_pressure;BME280_temperature;BME280_humidity;BME280_pressure;Samples;Min_cycle;Max_cycle;Signal;HPM_P1;HPM_P2
2021/12/20 00:00:18;;;;;;;5.03;4.63;;;;;;;3.94;100.00;98774.38;5089864;28;20191;-71
2021/12/20 00:02:48;;;;;;;5.33;5.00;;;;;;;3.93;100.00;98772.72;5090578;28;20210;-71
2021/12/20 00:05:15;;;;;;;5.37;4.40;;;;;;;3.97;100.00;98764.22;5089720;28;20687;-71
2021/12/20 00:07:43;;;;;;;4.40;4.00;;;;;;;4.05;99.68;98767.47;5088162;28;20789;-71
2021/12/20 00:10:10;;;;;;;4.57;4.30;;;;;;;4.23;97.96;98762.13;5085641;28;20219;-70
2021/12/20 00:12:36;;;;;;;7.53;3.97;;;;;;;4.47;97.69;98775.31;5089348;28;20557;-71
2021/12/20 00:15:06;;;;;;;4.80;4.50;;;;;;;4.60;97.00;98761.56;5090641;28;20195;-71
2021/12/20 00:17:33;;;;;;;5.10;4.70;;;;;;;4.68;96.94;98759.75;5089773;28;20199;-70
2021/12/20 00:20:00;;;;;;;4.93;4.27;;;;;;;4.86;96.10;98764.50;5090772;28;20687;-71
2021/12/20 00:22:27;;;;;;;5.10;4.80;;;;;;;4.97;95.85;98772.78;5090352;28;20595;-71
2021/12/20 00:24:54;;;;;;;4.53;4.13;;;;;;;5.05;95.82;98781.09;5090553;28;20686;-71
2021/12/20 00:27:21;;;;;;;4.27;3.97;;;;;;;5.14;95.62;98787.69;5089985;28;20202;-71
2021/12/20 00:29:49;;;;;;;5.83;5.33;;;;;;;5.26;94.24;98801.03;5085869;28;20222;-71
2021/12/20 00:32:18;;;;;;;5.30;4.80;;;;;;;5.32;94.53;98791.63;5086894;28;20199;-72
2021/12/20 00:34:46;;;;;;;4.77;4.47;;;;;;;5.33;93.99;98795.84;5088910;28;20292;-71
2021/12/20 00:42:39;;;;;;;5.10;4.70;;;;;;;5.43;94.13;98818.47;5088387;28;20210;-71
2021/12/20 00:45:07;;;;;;;5.47;5.17;;;;;;;5.26;94.69;98803.56;5089833;28;20596;-72
2021/12/20 00:47:35;;;;;;;6.07;5.67;;;;;;;5.34;95.17;98817.81;5092419;28;20210;-71
2021/12/20 00:50:03;;;;;;;5.03;4.73;;;;;;;5.34;95.28;98810.19;5093541;28;20215;-71
2021/12/20 00:52:29;;;;;;;6.23;5.83;;;;;;;5.33;95.33;98811.09;5093858;28;20198;-71
2021/12/20 00:54:56;;;;;;;6.17;5.77;;;;;;;5.39;95.27;98808.41;5094182;28;20195;-71
2021/12/20 00:57:23;;;;;;;5.83;5.53;;;;;;;5.37;95.39;98795.72;5089879;28;20192;-71
2021/12/20 00:59:50;;;;;;;6.17;5.63;;;;;;;5.33;95.94;98793.28;5093521;28;20188;-71
2021/12/20 01:02:17;;;;;;;5.90;5.50;;;;;;;5.30;96.04;98791.63;5093532;28;20199;-70
2021/12/20 01:04:45;;;;;;;9.03;6.00;;;;;;;5.32;96.15;98787.38;5090284;28;20207;-70
2021/12/20 01:07:12;;;;;;;7.93;5.07;;;;;;;5.29;96.49;98795.06;5092620;28;20200;-71
2021/12/20 01:09:39;;;;;;;6.10;5.73;;;;;;;5.28;96.71;98790.81;5093011;28;20258;-71
2021/12/20 01:12:14;;;;;;;6.00;5.37;;;;;;;5.28;96.95;98784.03;5093172;28;20201;-71
2021/12/20 01:14:41;;;;;;;6.10;5.60;;;;;;;5.22;96.81;98779.09;5093268;28;20203;-72
2021/12/20 01:17:08;;;;;;;6.30;5.90;;;;;;;5.27;97.05;98772.19;5093229;28;20192;-71
2021/12/20 01:19:36;;;;;;;6.40;6.00;;;;;;;5.27;97.00;98771.34;5093306;28;20196;-71
2021/12/20 01:22:07;;;;;;;6.17;5.73;;;;;;;5.36;96.42;98762.75;5093229;28;20199;-71
2021/12/20 01:24:34;;;;;;;6.60;6.17;;;;;;;5.37;96.33;98756.75;5093399;28;20585;-71
2021/12/20 01:27:01;;;;;;;5.27;4.97;;;;;;;5.45;95.61;98757.47;5092937;28;20203;-71
2021/12/20 01:29:27;;;;;;;5.13;4.77;;;;;;;5.47;95.43;98769.28;5092938;28;20215;-71
2021/12/20 01:31:54;;;;;;;5.40;5.07;;;;;;;5.50;95.45;98776.00;5092797;28;20573;-71
2021/12/20 01:34:21;;;;;;;6.53;6.00;;;;;;;5.41;95.58;98773.63;5093163;28;20199;-71
2021/12/20 01:36:48;;;;;;;5.53;5.23;;;;;;;5.43;95.41;98774.47;5093057;28;20678;-71
2021/12/20 01:39:17;;;;;;;4.97;4.67;;;;;;;5.27;96.26;98756.94;5092825;28;20582;-69
2021/12/20 01:41:45;;;;;;;5.73;5.20;;;;;;;5.42;95.66;98767.69;5092814;28;20286;-71
2021/12/20 01:44:13;;;;;;;4.67;4.30;;;;;;;5.48;95.05;98770.13;5090188;28;20195;-71
2021/12/20 01:46:40;;;;;;;4.77;4.53;;;;;;;5.52;95.24;98771.72;5092643;28;20210;-71
2021/12/20 01:49:11;;;;;;;5.10;4.80;;;;;;;5.58;95.08;98766.53;5092573;28;20314;-71
2021/12/20 01:51:49;;;;;;;4.43;4.20;;;;;;;5.43;95.23;98746.50;5092727;28;20290;-71
2021/12/20 01:54:18;;;;;;;5.97;5.47;;;;;;;5.51;95.44;98765.81;5092688;28;20195;-71
2021/12/20 01:56:45;;;;;;;5.50;4.63;;;;;;;5.37;95.27;98738.97;5092454;28;20679;-71
2021/12/20 01:59:12;;;;;;;4.60;4.30;;;;;;;5.65;95.01;98768.91;5091890;28;20206;-71
2021/12/20 02:01:41;;;;;;;4.60;4.40;;;;;;;5.72;94.65;98777.22;5091442;28;20207;-71
2021/12/20 02:04:09;;;;;;;4.73;4.33;;;;;;;5.81;94.27;98784.69;5092426;28;20568;-71
2021/12/20 02:06:38;;;;;;;4.80;4.50;;;;;;;5.86;93.62;98776.97;5091312;28;20347;-70
2021/12/20 02:09:08;;;;;;;4.53;4.13;;;;;;;5.92;93.79;98780.22;5091975;28;20215;-71
2021/12/20 02:11:37;;;;;;;5.43;5.03;;;;;;;5.87;94.83;98771.88;5091520;28;20587;-71
2021/12/20 02:14:05;;;;;;;5.83;5.33;;;;;;;5.79;94.81;98763.53;5092046;28;20199;-71
2021/12/20 02:16:33;;;;;;;4.87;4.67;;;;;;;5.83;95.04;98778.69;5088805;28;20203;-70
2021/12/20 02:19:02;;;;;;;5.17;4.77;;;;;;;5.89;94.41;98772.66;5090847;28;20199;-71
2021/12/20 02:21:31;;;;;;;4.20;3.90;;;;;;;5.96;94.20;98775.91;5089927;28;20207;-72
2021/12/20 02:23:58;;;;;;;4.70;4.40;;;;;;;5.93;94.26;98774.28;5089761;28;20325;-71
2021/12/20 02:26:25;;;;;;;4.63;4.20;;;;;;;6.04;93.61;98776.59;5089754;28;20199;-70
2021/12/20 02:28:54;;;;;;;5.30;4.80;;;;;;;6.07;94.40;98776.53;5089874;28;20191;-71
2021/12/20 02:37:03;;;;;;;4.03;3.73;;;;;;;6.10;92.85;98781.56;5089611;28;20203;-71
2021/12/20 02:39:31;;;;;;;4.50;4.30;;;;;;;6.17;92.89;98783.91;5089984;28;20256;-71
2021/12/20 02:41:58;;;;;;;4.20;4.00;;;;;;;5.96;93.65;98751.31;5090223;28;20210;-71
2021/12/20 02:44:28;;;;;;;3.93;3.73;;;;;;;6.07;93.79;98758.72;5090047;28;20195;-71
2021/12/20 02:47:06;;;;;;;4.40;4.20;;;;;;;6.12;93.28;98780.66;5089871;28;20191;-70
2021/12/20 02:49:34;;;;;;;4.10;3.90;;;;;;;6.15;93.52;98788.22;5090774;28;20230;-71
2021/12/20 02:52:06;;;;;;;4.53;4.23;;;;;;;6.12;93.53;98775.56;5091483;28;20199;-71
2021/12/20 02:54:34;;;;;;;6.70;4.20;;;;;;;6.15;94.12;98778.03;5091493;28;20203;-71
2021/12/20 02:57:01;;;;;;;4.93;4.60;;;;;;;6.11;94.42;98773.88;5091243;28;20202;-71
2021/12/20 02:59:28;;;;;;;3.73;3.53;;;;;;;6.12;93.91;98773.00;5091390;28;20195;-70
2021/12/20 03:01:59;;;;;;;4.97;4.67;;;;;;;6.13;93.71;98777.25;5090190;28;20203;-69
2021/12/20 03:04:26;;;;;;;4.40;4.10;;;;;;;6.13;93.67;98786.56;5090327;28;20199;-71
2021/12/20 03:06:56;;;;;;;4.80;4.50;;;;;;;6.14;93.38;98776.34;5091123;28;20202;-71
2021/12/20 03:09:30;;;;;;;4.53;4.23;;;;;;;6.13;93.63;98774.69;5090598;28;20598;-71
2021/12/20 03:11:59;;;;;;;4.57;4.27;;;;;;;6.13;93.38;98777.25;5090838;28;20226;-71
2021/12/20 03:14:30;;;;;;;3.47;3.27;;;;;;;6.19;93.52;98784.72;5091416;28;20677;-71
2021/12/20 03:16:58;;;;;;;4.73;4.50;;;;;;;6.14;93.31;98783.97;5091044;28;20210;-71
2021/12/20 03:19:26;;;;;;;3.90;3.70;;;;;;;6.13;93.51;98787.41;5091142;28;20201;-71
2021/12/20 03:21:54;;;;;;;4.03;3.80;;;;;;;6.14;93.83;98783.97;5091137;28;20195;-71
2021/12/20 03:24:21;;;;;;;4.13;3.93;;;;;;;6.14;93.53;98783.97;5091356;28;20208;-70
2021/12/20 03:26:50;;;;;;;4.30;4.10;;;;;;;6.12;93.42;98780.66;5090941;28;20206;-71
2021/12/20 03:29:17;;;;;;;4.20;4.00;;;;;;;6.17;93.44;98778.00;5090822;28;20196;-71
2021/12/20 03:31:44;;;;;;;4.97;4.67;;;;;;;6.20;92.55;98788.94;5090993;28;20256;-71
2021/12/20 03:34:11;;;;;;;4.30;4.00;;;;;;;6.20;92.79;98785.56;5090770;28;20221;-71
2021/12/20 03:36:38;;;;;;;4.57;4.37;;;;;;;6.17;92.78;98791.53;5090795;28;20204;-71
2021/12/20 03:39:07;;;;;;;4.27;3.97;;;;;;;6.22;92.52;98791.44;5090574;28;20195;-71
2021/12/20 03:41:34;;;;;;;4.77;4.47;;;;;;;6.20;92.76;98799.09;5091024;28;20742;-71
2021/12/20 03:44:03;;;;;;;4.60;4.40;;;;;;;6.19;92.90;98801.69;5090912;28;20199;-70
2021/12/20 03:46:31;;;;;;;3.93;3.73;;;;;;;5.95;92.76;98771.69;5090997;28;20199;-71
2021/12/20 03:48:57;;;;;;;4.30;3.73;;;;;;;6.24;93.35;98802.44;5090702;28;20195;-71
2021/12/20 03:51:24;;;;;;;4.63;4.43;;;;;;;6.26;93.19;98793.06;5090615;28;20211;-71
2021/12/20 03:53:51;;;;;;;4.77;4.53;;;;;;;6.22;93.68;98801.63;5088711;28;20552;-70
2021/12/20 03:56:18;;;;;;;5.37;4.87;;;;;;;6.30;93.15;98805.66;5087758;28;20199;-71
2021/12/20 03:58:45;;;;;;;5.20;4.90;;;;;;;6.24;93.32;98805.81;5089537;28;20196;-69
2021/12/20 04:01:14;;;;;;;4.97;4.67;;;;;;;6.27;93.04;98800.66;5089606;28;20199;-69
2021/12/20 04:03:42;;;;;;;5.20;4.73;;;;;;;6.25;93.50;98794.78;5090705;28;20207;-71
2021/12/20 04:06:11;;;;;;;4.70;4.37;;;;;;;6.27;92.69;98805.75;5090594;28;20272;-70
2021/12/20 04:08:38;;;;;;;5.13;4.83;;;;;;;6.28;93.34;98802.34;5091021;28;20702;-71
2021/12/20 04:11:05;;;;;;;5.27;5.00;;;;;;;6.28;93.44;98812.50;5086021;28;20227;-71
2021/12/20 04:13:33;;;;;;;5.60;5.20;;;;;;;6.28;92.84;98817.59;5090018;28;20200;-71
2021/12/20 04:16:00;;;;;;;5.00;4.70;;;;;;;6.32;93.59;98798.84;5090491;28;20772;-71
2021/12/20 04:18:30;;;;;;;5.20;4.90;;;;;;;6.26;94.92;98814.28;5090355;28;20200;-72
2021/12/20 04:20:57;;;;;;;6.03;5.53;;;;;;;6.21;94.85;98821.16;5091858;28;20196;-71
2021/12/20 04:23:24;;;;;;;5.80;5.30;;;;;;;6.13;94.07;98797.59;5093144;28;20205;-71
2021/12/20 04:25:51;;;;;;;5.33;4.87;;;;;;;6.22;93.97;98827.91;5094209;28;20228;-71
2021/12/20 04:28:18;;;;;;;5.93;5.53;;;;;;;6.20;94.94;98824.56;5093213;28;20206;-69
2021/12/20 04:30:45;;;;;;;5.77;5.37;;;;;;;6.19;94.52;98830.53;5094028;28;20586;-71
2021/12/20 04:33:12;;;;;;;5.17;4.97;;;;;;;6.08;94.75;98813.81;5093970;28;20199;-71
2021/12/20 04:35:40;;;;;;;4.77;4.57;;;;;;;6.20;94.81;98842.38;5093618;28;20191;-71
2021/12/20 04:38:08;;;;;;;5.57;5.27;;;;;;;6.21;94.64;98850.84;5094198;28;20207;-71
2021/12/20 04:40:35;;;;;;;5.73;5.23;;;;;;;6.18;94.58;98841.56;5093924;28;20195;-71
2021/12/20 04:43:02;;;;;;;6.07;5.67;;;;;;;6.24;94.90;98850.78;5093952;28;20204;-71
2021/12/20 04:45:30;;;;;;;6.07;5.70;;;;;;;6.15;95.35;98845.88;5093725;28;20202;-71
2021/12/20 04:47:57;;;;;;;5.47;5.07;;;;;;;6.23;94.68;98849.97;5093946;28;20678;-71
2021/12/20 04:50:25;;;;;;;7.57;7.00;;;;;;;6.24;94.78;98866.88;5093861;28;20709;-71
2021/12/20 04:52:55;;;;;;;8.17;7.33;;;;;;;6.21;95.33;98861.03;5092366;28;20207;-71
2021/12/20 04:55:22;;;;;;;8.47;7.67;;;;;;;6.24;95.13;98866.06;5093570;28;20203;-71
2021/12/20 04:57:49;;;;;;;5.50;5.20;;;;;;;6.27;94.52;98856.66;5092487;28;20210;-71
2021/12/20 05:00:19;;;;;;;5.53;5.13;;;;;;;6.23;95.22;98862.69;5093398;28;20199;-70
2021/12/20 05:02:46;;;;;;;5.43;5.13;;;;;;;6.27;94.78;98869.38;5093596;28;20207;-71
2021/12/20 05:05:13;;;;;;;5.27;4.87;;;;;;;6.23;95.37;98867.78;5093550;28;20199;-71
2021/12/20 05:07:40;;;;;;;6.50;6.10;;;;;;;6.23;94.93;98864.41;5093442;28;20195;-71
2021/12/20 05:10:12;;;;;;;5.40;5.10;;;;;;;6.22;93.89;98863.56;5093307;28;20347;-71
2021/12/20 05:12:39;;;;;;;6.37;5.87;;;;;;;6.26;94.22;98862.63;5093481;28;20229;-71
2021/12/20 05:15:07;;;;;;;5.00;4.60;;;;;;;6.22;94.21;98838.09;5093680;28;20724;-70
2021/12/20 05:17:36;;;;;;;5.63;5.23;;;;;;;6.37;93.35;98842.00;5093428;28;20199;-72
2021/12/20 05:20:03;;;;;;;5.83;5.47;;;;;;;6.35;93.79;98859.03;5093050;28;20210;-71
2021/12/20 05:22:30;;;;;;;5.37;5.07;;;;;;;6.36;93.83;98864.97;5093088;28;20196;-71
2021/12/20 05:24:57;;;;;;;5.10;4.77;;;;;;;6.37;93.08;98856.44;5092842;28;20195;-71
2021/12/20 05:27:25;;;;;;;6.20;5.70;;;;;;;6.38;93.15;98838.59;5093036;28;20200;-71
2021/12/20 05:29:52;;;;;;;8.67;5.80;;;;;;;6.33;93.18;98843.78;5092763;28;20200;-69
2021/12/20 05:32:19;;;;;;;6.00;5.57;;;;;;;6.41;93.03;98851.25;5092286;28;20579;-71
2021/12/20 05:34:47;;;;;;;5.10;4.73;;;;;;;6.36;92.98;98836.97;5092997;28;20681;-71
2021/12/20 05:37:15;;;;;;;4.93;4.60;;;;;;;6.40;92.90;98848.75;5092913;28;20201;-71
2021/12/20 05:39:43;;;;;;;4.70;4.40;;;;;;;6.41;93.68;98842.78;5092658;28;20211;-70
2021/12/20 05:42:10;;;;;;;6.77;4.47;;;;;;;6.42;93.34;98839.38;5092719;28;20552;-71
2021/12/20 05:44:38;;;;;;;4.93;4.63;;;;;;;6.46;92.36;98836.72;5092992;28;20553;-70
2021/12/20 05:47:05;;;;;;;5.53;5.13;;;;;;;6.43;92.20;98848.69;5092025;28;20658;-71
2021/12/20 05:49:32;;;;;;;4.67;4.43;;;;;;;6.49;91.54;98848.56;5092346;28;20200;-71
2021/12/20 05:52:03;;;;;;;4.47;4.17;;;;;;;6.45;92.01;98849.47;5091222;28;20284;-71
2021/12/20 05:54:30;;;;;;;4.40;4.10;;;;;;;6.53;92.15;98873.88;5092462;28;20674;-71
2021/12/20 05:56:56;;;;;;;4.53;4.33;;;;;;;6.31;91.80;98821.78;5090862;28;20209;-71
2021/12/20 05:59:23;;;;;;;4.53;4.27;;;;;;;6.48;92.45;98855.34;5092560;28;20743;-71
2021/12/20 06:01:52;;;;;;;4.43;4.03;;;;;;;6.49;92.05;98876.56;5092513;28;20585;-70
2021/12/20 06:04:18;;;;;;;4.93;4.57;;;;;;;6.50;92.50;98878.22;5091846;28;20191;-71
2021/12/20 06:06:45;;;;;;;4.97;4.67;;;;;;;6.48;93.00;98875.72;5092285;28;20202;-71
2021/12/20 06:09:12;;;;;;;4.90;4.60;;;;;;;6.48;93.07;98880.81;5092062;28;20659;-71
2021/12/20 06:11:39;;;;;;;4.90;4.60;;;;;;;6.47;92.78;98885.91;5092271;28;20230;-71
2021/12/20 06:14:06;;;;;;;5.03;4.27;;;;;;;6.43;92.99;98874.16;5090541;28;20206;-71
2021/12/20 06:16:33;;;;;;;4.43;4.17;;;;;;;6.51;93.08;98896.00;5089498;28;20195;-71
2021/12/20 06:19:01;;;;;;;4.63;4.33;;;;;;;6.48;93.43;98890.16;5091852;28;20195;-71
2021/12/20 06:21:28;;;;;;;4.93;4.50;;;;;;;6.49;93.43;98887.59;5091994;28;20196;-71
2021/12/20 06:23:55;;;;;;;5.27;4.80;;;;;;;6.50;93.28;98893.50;5091836;28;20202;-71
2021/12/20 06:26:23;;;;;;;5.60;5.30;;;;;;;6.50;93.07;98896.03;5092109;28;20584;-71
2021/12/20 06:28:50;;;;;;;4.90;4.60;;;;;;;6.51;92.82;98893.47;5091969;28;21637;-71
2021/12/20 06:31:17;;;;;;;4.47;4.17;;;;;;;6.54;92.00;98907.84;5090640;28;20219;-70
2021/12/20 06:33:44;;;;;;;4.37;4.13;;;;;;;6.60;91.79;98905.16;5090939;28;20202;-71
2021/12/20 06:36:13;;;;;;;4.63;4.33;;;;;;;6.61;91.47;98896.66;5091371;28;20583;-61
2021/12/20 06:38:45;;;;;;;5.63;5.13;;;;;;;6.61;91.69;98899.19;5091635;28;20203;-61
2021/12/20 06:41:13;;;;;;;5.80;5.37;;;;;;;6.61;92.27;98904.28;5091539;28;20194;-61
2021/12/20 06:43:40;;;;;;;4.63;4.30;;;;;;;6.56;92.08;98890.84;5091297;28;20207;-61
2021/12/20 06:46:07;;;;;;;4.60;4.37;;;;;;;6.66;92.25;98895.66;5091471;28;20191;-63
2021/12/20 06:48:34;;;;;;;4.13;3.93;;;;;;;6.65;91.89;98898.25;5087494;28;20192;-71
2021/12/20 06:51:01;;;;;;;4.87;4.47;;;;;;;6.66;91.99;98902.47;5085631;28;20219;-71
2021/12/20 06:53:29;;;;;;;4.23;3.90;;;;;;;6.68;92.84;98903.28;5087428;28;20213;-71
2021/12/20 06:55:56;;;;;;;4.43;4.23;;;;;;;6.68;92.01;98928.75;5086471;28;20200;-71
2021/12/20 06:58:24;;;;;;;7.30;4.97;;;;;;;6.71;93.22;98923.59;5088723;28;20207;-72
2021/12/20 07:00:52;;;;;;;5.50;5.00;;;;;;;6.73;92.54;98929.47;5083473;28;20625;-71
2021/12/20 07:03:19;;;;;;;4.70;4.40;;;;;;;6.75;92.78;98930.31;5078910;28;20207;-71
2021/12/20 07:05:47;;;;;;;5.10;4.60;;;;;;;6.80;92.25;98929.31;5087875;28;20673;-71
2021/12/20 07:08:14;;;;;;;8.40;3.70;;;;;;;6.82;91.75;98926.72;5087646;28;20199;-71
2021/12/20 07:10:43;;;;;;;4.40;4.10;;;;;;;6.88;91.25;98932.50;5083439;28;20227;-73
2021/12/20 07:13:10;;;;;;;4.23;3.90;;;;;;;6.88;91.57;98929.16;5087399;28;20853;-71
2021/12/20 07:15:39;;;;;;;3.70;3.50;;;;;;;6.91;91.51;98926.53;5086393;28;20275;-71
2021/12/20 07:18:06;;;;;;;4.07;3.67;;;;;;;6.90;91.43;98922.31;5087410;28;20203;-72
2021/12/20 07:20:33;;;;;;;5.20;3.20;;;;;;;6.90;91.23;98922.31;5082394;28;20208;-71
2021/12/20 07:23:01;;;;;;;2.90;2.80;;;;;;;6.91;91.95;98925.69;5085736;28;20210;-68
2021/12/20 07:25:28;;;;;;;3.83;3.63;;;;;;;6.91;92.29;98926.53;5086165;28;20682;-70
2021/12/20 07:27:56;;;;;;;3.30;3.10;;;;;;;6.87;93.21;98917.28;5086247;28;20576;-69
2021/12/20 07:30:23;;;;;;;2.93;2.80;;;;;;;6.91;92.73;98921.44;5085788;28;20208;-69
2021/12/20 07:32:50;;;;;;;3.27;3.07;;;;;;;6.93;91.90;98924.78;5085617;28;20207;-70
2021/12/20 07:35:17;;;;;;;3.80;3.60;;;;;;;7.02;91.87;98914.38;5085138;28;20203;-69
2021/12/20 07:37:44;;;;;;;3.10;2.97;;;;;;;7.08;91.73;98921.84;5085748;28;20207;-69
2021/12/20 07:40:12;;;;;;;3.10;3.00;;;;;;;7.12;91.92;98926.00;5085369;28;20203;-69
2021/12/20 07:42:39;;;;;;;3.40;3.30;;;;;;;7.14;91.50;98919.16;5082872;28;20676;-70
2021/12/20 07:45:10;;;;;;;3.17;3.03;;;;;;;7.20;91.16;98916.50;5084563;28;20206;-69
2021/12/20 07:47:37;;;;;;;3.20;3.00;;;;;;;7.21;91.70;98920.69;5084961;28;21401;-70
2021/12/20 07:50:05;;;;;;;3.10;3.00;;;;;;;7.18;91.91;98912.28;5082845;28;20195;-71
2021/12/20 07:52:32;;;;;;;3.93;3.63;;;;;;;7.29;91.52;98923.91;5081661;28;20219;-70
2021/12/20 07:54:59;;;;;;;3.23;3.07;;;;;;;7.37;91.38;98927.09;5084376;28;20579;-70
2021/12/20 07:57:26;;;;;;;2.77;2.67;;;;;;;7.51;90.98;98929.31;5087987;28;20199;-71
2021/12/20 07:59:53;;;;;;;3.17;2.97;;;;;;;7.60;90.06;98925.66;5090555;28;20207;-71
2021/12/20 08:02:21;;;;;;;3.17;3.07;;;;;;;7.70;87.14;98925.41;5087993;28;20199;-71
2021/12/20 08:04:50;;;;;;;2.77;2.43;;;;;;;7.78;87.35;98932.88;5091147;28;20582;-70
2021/12/20 08:07:21;;;;;;;3.70;2.80;;;;;;;7.86;87.63;98925.81;5089691;28;21078;-69
2021/12/20 08:09:49;;;;;;;4.77;2.57;;;;;;;7.97;86.18;98934.03;5082856;28;20222;-70
2021/12/20 08:12:16;;;;;;;2.70;2.60;;;;;;;7.94;84.52;98944.34;5085725;28;20237;-70
2021/12/20 08:14:43;;;;;;;3.27;3.07;;;;;;;7.90;86.10;98940.19;5090094;28;20568;-69
2021/12/20 08:17:10;;;;;;;2.53;2.43;;;;;;;7.86;86.02;98936.88;5090048;28;20218;-70
2021/12/20 08:19:38;;;;;;;3.33;3.13;;;;;;;7.83;85.48;98931.00;5088943;28;20214;-70
2021/12/20 08:22:05;;;;;;;4.13;3.00;;;;;;;7.73;85.70;98934.69;5089957;28;20579;-70
2021/12/20 08:24:32;;;;;;;4.53;4.23;;;;;;;7.67;86.56;98930.59;5089614;28;20199;-72
2021/12/20 08:26:59;;;;;;;7.77;7.07;;;;;;;7.70;86.79;98930.50;5090178;28;20222;-70
2021/12/20 08:29:26;;;;;;;5.17;4.77;;;;;;;7.83;86.29;98931.00;5090104;28;20195;-72
2021/12/20 08:31:54;;;;;;;5.10;3.53;;;;;;;7.94;86.37;98934.13;5090135;28;20212;-71
2021/12/20 08:34:21;;;;;;;3.00;2.90;;;;;;;8.05;85.94;98942.31;5090482;28;20299;-70
2021/12/20 08:36:49;;;;;;;3.73;3.53;;;;;;;8.02;85.29;98939.84;5088965;28;20207;-71
2021/12/20 08:39:19;;;;;;;3.47;3.27;;;;;;;7.92;86.74;98916.28;5093058;28;20205;-71
2021/12/20 08:41:46;;;;;;;3.27;3.00;;;;;;;8.13;84.40;98950.63;5089601;28;20230;-70
2021/12/20 08:44:14;;;;;;;3.33;3.23;;;;;;;8.26;84.37;98936.63;5088339;28;20207;-70
2021/12/20 08:46:41;;;;;;;3.77;3.57;;;;;;;8.43;84.73;98944.66;5086912;28;20199;-70
2021/12/20 08:49:08;;;;;;;3.47;3.30;;;;;;;8.55;84.21;98929.88;5088876;28;20211;-70
2021/12/20 08:51:36;;;;;;;3.60;3.40;;;;;;;8.62;82.32;98939.88;5089283;28;20215;-68
2021/12/20 08:54:04;;;;;;;2.80;2.70;;;;;;;8.67;83.29;98952.50;5089347;28;20196;-69
2021/12/20 08:56:31;;;;;;;2.60;2.50;;;;;;;8.66;83.26;98948.28;5089770;28;20207;-69
2021/12/20 08:58:58;;;;;;;2.63;2.43;;;;;;;8.73;81.87;98945.47;5087958;28;20564;-70
2021/12/20 09:01:25;;;;;;;2.07;1.97;;;;;;;8.73;80.19;98949.75;5088205;28;20188;-71
2021/12/20 09:03:52;;;;;;;2.00;1.90;;;;;;;8.75;79.88;98955.69;5087666;28;20583;-69
2021/12/20 09:06:22;;;;;;;2.20;2.10;;;;;;;8.85;79.34;98957.06;5087223;28;20214;-71
2021/12/20 09:08:49;;;;;;;2.07;1.97;;;;;;;8.97;78.95;98961.81;5084201;28;20293;-71
2021/12/20 09:11:17;;;;;;;2.23;2.13;;;;;;;9.02;79.09;98957.38;5085954;28;20227;-70
2021/12/20 09:13:45;;;;;;;2.03;1.93;;;;;;;9.03;78.68;98971.84;5088391;28;20205;-71
2021/12/20 09:16:12;;;;;;;1.60;1.50;;;;;;;9.11;77.15;98944.31;5088838;28;20246;-70
2021/12/20 09:18:39;;;;;;;2.30;2.10;;;;;;;9.20;79.59;98945.75;5088574;28;20633;-71
2021/12/20 09:21:08;;;;;;;2.13;2.03;;;;;;;9.23;78.96;98951.59;5084229;28;20233;-70
2021/12/20 09:23:35;;;;;;;1.70;1.70;;;;;;;9.18;78.30;98944.94;5088764;28;20671;-70
2021/12/20 09:26:03;;;;;;;2.13;2.03;;;;;;;9.12;77.71;98951.09;5088309;28;20203;-70
2021/12/20 09:28:32;;;;;;;2.23;2.13;;;;;;;9.18;77.98;98945.78;5087992;28;20667;-70
2021/12/20 09:31:00;;;;;;;1.87;1.77;;;;;;;9.11;77.51;98948.59;5087650;28;20199;-70
2021/12/20 09:33:26;;;;;;;1.80;1.70;;;;;;;9.24;76.50;98945.59;5086721;28;20196;-70
2021/12/20 09:35:54;;;;;;;2.03;1.93;;;;;;;9.24;77.87;98947.34;5089509;28;20568;-71
2021/12/20 09:38:22;;;;;;;2.10;2.10;;;;;;;9.26;77.10;98956.63;5088995;28;20230;-71
2021/12/20 09:43:39;;;;;;;2.03;1.47;;;;;;;9.26;75.12;98954.06;5087503;28;20199;-71
2021/12/20 09:46:06;;;;;;;1.90;1.80;;;;;;;9.30;75.07;98950.53;5087823;28;20207;-71
2021/12/20 09:48:35;;;;;;;1.70;1.70;;;;;;;9.30;74.98;98955.66;5092473;28;20203;-70
2021/12/20 09:51:03;;;;;;;1.70;1.70;;;;;;;9.39;76.57;98962.19;5089226;28;20667;-70
2021/12/20 09:53:30;;;;;;;3.37;2.00;;;;;;;9.43;75.72;98968.88;5088337;28;20195;-70
2021/12/20 09:55:59;;;;;;;1.70;1.70;;;;;;;9.45;76.39;98962.81;5087098;28;20204;-70
2021/12/20 09:58:28;;;;;;;2.20;2.10;;;;;;;9.66;78.11;98961.25;5087608;28;20206;-70
2021/12/20 10:00:56;;;;;;;1.87;1.77;;;;;;;9.82;75.71;98948.81;5087635;28;20214;-70
2021/12/20 10:03:24;;;;;;;1.77;1.67;;;;;;;9.87;73.51;98964.81;5085976;28;20210;-71
2021/12/20 10:05:55;;;;;;;2.57;1.63;;;;;;;9.73;74.37;98964.44;5087009;28;20199;-71
2021/12/20 10:08:31;;;;;;;2.27;2.07;;;;;;;9.53;74.60;98971.97;5088686;28;20671;-71
2021/12/20 10:10:58;;;;;;;2.13;2.03;;;;;;;9.37;73.06;98975.00;5090374;28;20674;-71
2021/12/20 10:13:27;;;;;;;1.40;1.40;;;;;;;9.33;74.09;98960.66;5088444;28;20687;-71
2021/12/20 10:15:57;;;;;;;3.23;1.77;;;;;;;9.23;73.91;98961.84;5083634;28;20199;-71
2021/12/20 10:18:25;;;;;;;1.70;1.60;;;;;;;9.09;72.83;98968.25;5087446;28;20231;-71
2021/12/20 10:20:54;;;;;;;1.50;1.40;;;;;;;9.02;73.77;98949.72;5087964;28;20675;-71
2021/12/20 10:23:23;;;;;;;1.70;1.70;;;;;;;9.01;74.00;98948.06;5084391;28;20202;-71
2021/12/20 10:25:53;;;;;;;2.00;1.90;;;;;;;8.89;73.13;98945.84;5086249;28;20264;-70
2021/12/20 10:28:23;;;;;;;1.53;1.53;;;;;;;8.82;73.57;98946.94;5087841;28;20199;-70
2021/12/20 10:30:52;;;;;;;1.67;1.60;;;;;;;8.82;73.03;98959.72;5086408;28;20257;-71
2021/12/20 10:33:23;;;;;;;1.80;1.70;;;;;;;8.77;74.00;98949.63;5087809;28;20219;-71
2021/12/20 10:35:52;;;;;;;6.43;1.60;;;;;;;8.74;72.60;98948.88;5085925;28;20603;-70
2021/12/20 10:38:28;;;;;;;1.83;1.73;;;;;;;8.76;74.13;98942.00;5085624;28;20282;-70
2021/12/20 10:40:59;;;;;;;1.57;1.50;;;;;;;8.73;74.40;98957.41;5084731;28;20225;-70
2021/12/20 10:43:28;;;;;;;1.53;1.43;;;;;;;8.67;76.26;98929.50;5084046;28;20210;-70
2021/12/20 10:45:57;;;;;;;1.80;1.70;;;;;;;8.80;76.03;98948.69;5085073;28;20660;-70
2021/12/20 10:48:32;;;;;;;1.80;1.70;;;;;;;9.03;74.16;98951.38;5082390;28;20204;-70
2021/12/20 10:51:00;;;;;;;1.83;1.73;;;;;;;9.26;71.94;98948.94;5084343;28;20214;-71
2021/12/20 10:53:28;;;;;;;1.60;1.37;;;;;;;9.27;72.04;98950.59;5085403;28;20211;-71
2021/12/20 10:55:56;;;;;;;2.13;1.97;;;;;;;9.30;72.48;98935.19;5085003;28;20296;-70
2021/12/20 10:58:30;;;;;;;1.47;1.40;;;;;;;9.37;73.48;98936.63;5085948;28;20308;-69
2021/12/20 11:01:19;;;;;;;1.57;1.57;;;;;;;9.41;72.68;98942.50;5088481;28;20230;-71
2021/12/20 11:04:00;;;;;;;1.90;1.80;;;;;;;9.57;73.59;98943.66;5087294;28;20211;-70
2021/12/20 11:09:23;;;;;;;2.63;1.70;;;;;;;9.60;71.92;98920.53;5048962;28;20605;-69
2021/12/20 11:11:52;;;;;;;1.50;1.50;;;;;;;9.69;70.28;98933.03;5088223;28;20257;-69
2021/12/20 11:14:21;;;;;;;7.10;1.53;;;;;;;9.67;69.21;98926.25;5084502;28;20586;-69
2021/12/20 11:16:50;;;;;;;3.97;1.97;;;;;;;9.68;69.56;98930.50;5086187;28;20646;-70
2021/12/20 11:19:37;;;;;;;1.27;1.27;;;;;;;9.71;70.32;98925.28;5087156;28;20214;-70
2021/12/20 11:22:07;;;;;;;1.50;1.40;;;;;;;9.75;70.29;98926.84;5086736;28;20206;-70
2021/12/20 11:24:42;;;;;;;1.67;1.67;;;;;;;9.71;69.79;98935.53;5085500;28;20591;-70
2021/12/20 11:27:12;;;;;;;5.90;1.60;;;;;;;9.75;70.44;98927.69;5081341;28;20659;-69
2021/12/20 11:29:41;;;;;;;1.60;1.47;;;;;;;9.79;71.98;98939.47;5082698;28;20201;-70
2021/12/20 11:32:09;;;;;;;1.40;1.40;;;;;;;9.91;70.46;98948.47;5080160;28;20622;-70
2021/12/20 11:34:41;;;;;;;2.10;2.00;;;;;;;9.94;70.35;98958.63;5085023;28;20286;-69
2021/12/20 11:37:09;;;;;;;1.73;1.47;;;;;;;9.88;70.96;98944.31;5083045;28;20211;-69
2021/12/20 11:39:36;;;;;;;3.03;1.90;;;;;;;9.72;71.42;98947.44;5086069;28;20340;-70
2021/12/20 11:42:05;;;;;;;4.20;1.80;;;;;;;9.54;71.36;98951.44;5085478;28;20210;-70
2021/12/20 11:44:32;;;;;;;1.73;1.73;;;;;;;9.52;73.65;98957.50;5086781;28;20203;-69
2021/12/20 11:47:16;;;;;;;1.60;1.60;;;;;;;9.52;73.93;98957.50;5084010;28;20298;-70
2021/12/20 11:49:44;;;;;;;1.37;1.37;;;;;;;9.36;72.34;98958.00;5087014;28;20203;-70
2021/12/20 11:52:17;;;;;;;2.00;1.90;;;;;;;9.34;74.62;98971.69;5087532;28;20211;-71
2021/12/20 11:54:48;;;;;;;2.10;2.00;;;;;;;9.32;74.02;98961.53;5087503;28;20215;-70
2021/12/20 11:57:34;;;;;;;3.43;1.80;;;;;;;9.26;74.48;98968.56;5087701;28;20210;-71
2021/12/20 12:00:05;;;;;;;1.73;1.63;;;;;;;9.14;74.50;98982.59;5086781;28;20221;-70
2021/12/20 12:02:34;;;;;;;2.00;1.90;;;;;;;9.13;75.52;98968.13;5089794;28;20589;-71